createdAt,value
2018-11-02T00:00:26.658Z,13.60
2018-11-02T00:01:26.598Z,13.70
2018-11-02T00:02:26.579Z,13.60
2018-11-02T00:03:26.575Z,12.70
2018-11-02T00:04:26.545Z,12.80
2018-11-02T00:05:26.522Z,13.00
2018-11-02T00:06:26.570Z,12.90
2018-11-02T00:07:26.486Z,13.70
2018-11-02T00:08:26.468Z,13.90
2018-11-02T00:09:26.452Z,13.60
2018-11-02T00:10:26.438Z,14.20
2018-11-02T00:11:26.415Z,14.90
2018-11-02T00:12:26.505Z,14.30
2018-11-02T00:13:26.385Z,15.20
2018-11-02T00:14:26.363Z,14.10
2018-11-02T00:15:26.343Z,14.00
2018-11-02T00:16:26.326Z,14.00
2018-11-02T00:17:26.313Z,13.80
2018-11-02T00:18:26.288Z,13.00
2018-11-02T00:19:26.268Z,13.00
2018-11-02T00:20:26.250Z,13.70
2018-11-02T00:21:26.232Z,13.10
2018-11-02T00:22:26.249Z,12.20
2018-11-02T00:23:26.199Z,12.90
2018-11-02T00:24:26.180Z,13.00
2018-11-02T00:25:26.161Z,13.40
2018-11-02T00:26:26.144Z,13.90
2018-11-02T00:27:26.127Z,13.50
2018-11-02T00:28:26.109Z,14.30
2018-11-02T00:29:26.090Z,14.60
2018-11-02T00:30:26.078Z,14.50
2018-11-02T00:31:26.055Z,15.50
2018-11-02T00:32:26.040Z,15.00
2018-11-02T00:33:26.018Z,15.70
2018-11-02T00:34:26.002Z,15.70
2018-11-02T00:35:25.989Z,15.50
2018-11-02T00:36:25.967Z,15.20
2018-11-02T00:37:25.945Z,15.50
2018-11-02T00:38:25.932Z,15.20
2018-11-02T00:39:25.911Z,15.80
2018-11-02T00:40:25.890Z,15.20
2018-11-02T00:41:25.879Z,15.00
2018-11-02T00:42:25.900Z,15.00
2018-11-02T00:43:25.837Z,14.30
2018-11-02T00:44:25.819Z,14.00
2018-11-02T00:45:25.804Z,14.00
2018-11-02T00:46:25.789Z,13.70
2018-11-02T00:47:25.766Z,14.00
2018-11-02T00:48:25.749Z,14.60
2018-11-02T00:49:25.734Z,13.70
2018-11-02T00:50:25.713Z,14.70
2018-11-02T00:51:25.694Z,13.60
2018-11-02T00:52:25.673Z,13.40
2018-11-02T00:53:25.654Z,13.70
2018-11-02T00:54:25.637Z,13.60
2018-11-02T00:55:25.620Z,13.00
2018-11-02T00:56:25.601Z,14.00
2018-11-02T00:57:25.582Z,14.00
2018-11-02T00:58:25.566Z,15.00
2018-11-02T00:59:25.557Z,14.50
2018-11-02T01:00:25.528Z,13.60
2018-11-02T01:01:25.512Z,14.10
2018-11-02T01:02:25.491Z,14.00
2018-11-02T01:03:25.484Z,13.60
2018-11-02T01:04:25.459Z,13.30
2018-11-02T01:05:25.437Z,13.20
2018-11-02T01:06:25.421Z,12.70
2018-11-02T01:07:25.404Z,13.20
2018-11-02T01:08:25.389Z,12.50
2018-11-02T01:09:25.365Z,12.30
2018-11-02T01:10:25.345Z,11.40
2018-11-02T01:11:25.331Z,11.50
2018-11-02T01:12:25.318Z,11.50
2018-11-02T01:13:25.295Z,11.00
2018-11-02T01:14:25.274Z,11.90
2018-11-02T01:15:25.258Z,11.30
2018-11-02T01:16:25.258Z,11.00
2018-11-02T01:17:25.222Z,11.70
2018-11-02T01:18:25.209Z,11.20
2018-11-02T01:19:25.186Z,10.90
2018-11-02T01:20:25.166Z,10.70
2018-11-02T01:21:25.155Z,11.20
2018-11-02T01:22:25.164Z,10.90
2018-11-02T01:23:25.115Z,11.80
2018-11-02T01:24:25.121Z,11.80
2018-11-02T01:25:25.078Z,12.10
2018-11-02T01:26:25.057Z,11.50
2018-11-02T01:27:25.037Z,11.60
2018-11-02T01:28:25.028Z,11.30
2018-11-02T01:29:25.003Z,11.50
2018-11-02T01:30:24.986Z,11.60
2018-11-02T01:31:24.967Z,11.10
2018-11-02T01:32:24.947Z,11.10
2018-11-02T01:33:24.929Z,11.30
2018-11-02T01:34:24.913Z,10.70
2018-11-02T01:35:24.899Z,11.30
2018-11-02T01:36:24.876Z,10.30
2018-11-02T01:37:24.857Z,11.10
2018-11-02T01:38:24.857Z,11.70
2018-11-02T01:39:24.824Z,11.40
2018-11-02T01:40:24.805Z,11.60
2018-11-02T01:41:24.788Z,11.90
2018-11-02T01:42:24.772Z,10.70
2018-11-02T01:43:24.754Z,10.80
2018-11-02T01:44:24.741Z,10.80
2018-11-02T01:45:24.727Z,10.80
2018-11-02T01:46:24.695Z,10.60
2018-11-02T01:47:24.677Z,9.70
2018-11-02T01:48:24.660Z,10.00
2018-11-02T01:49:24.646Z,9.60
2018-11-02T01:50:24.726Z,8.60
2018-11-02T01:51:24.606Z,9.70
2018-11-02T01:52:24.589Z,9.50
2018-11-02T01:53:24.574Z,9.20
2018-11-02T01:54:24.552Z,9.30
2018-11-02T01:55:24.534Z,8.50
2018-11-02T01:56:24.516Z,9.80
2018-11-02T01:57:24.496Z,9.50
2018-11-02T01:58:24.494Z,9.40
2018-11-02T01:59:24.460Z,9.00
2018-11-02T02:00:24.452Z,9.30
2018-11-02T02:01:24.430Z,8.70
2018-11-02T02:02:24.411Z,9.30
2018-11-02T02:03:24.390Z,9.10
2018-11-02T02:04:24.370Z,9.70
2018-11-02T02:05:24.352Z,9.70
2018-11-02T02:06:24.367Z,9.30
2018-11-02T02:07:24.321Z,10.60
2018-11-02T02:08:24.301Z,10.30
2018-11-02T02:09:24.282Z,10.40
2018-11-02T02:10:24.273Z,10.60
2018-11-02T02:11:24.251Z,11.10
2018-11-02T02:12:24.226Z,11.50
2018-11-02T02:13:24.353Z,11.40
2018-11-02T02:14:24.193Z,12.10
2018-11-02T02:15:24.175Z,12.20
2018-11-02T02:16:24.154Z,11.20
2018-11-02T02:17:24.136Z,11.10
2018-11-02T02:18:24.127Z,9.70
2018-11-02T02:19:24.100Z,9.40
2018-11-02T02:20:24.083Z,8.70
2018-11-02T02:21:24.065Z,9.10
2018-11-02T02:22:24.046Z,8.20
2018-11-02T02:23:24.027Z,8.80
2018-11-02T02:24:24.010Z,7.80
2018-11-02T02:25:23.991Z,8.20
2018-11-02T02:26:23.973Z,8.70
2018-11-02T02:27:23.960Z,8.10
2018-11-02T02:28:23.937Z,7.80
2018-11-02T02:29:23.929Z,8.20
2018-11-02T02:30:23.904Z,8.40
2018-11-02T02:31:23.884Z,7.70
2018-11-02T02:32:23.869Z,7.80
2018-11-02T02:33:23.848Z,7.00
2018-11-02T02:34:23.829Z,8.30
2018-11-02T02:35:23.811Z,7.60
2018-11-02T02:36:23.792Z,7.20
2018-11-02T02:37:23.775Z,7.40
2018-11-02T02:38:23.756Z,6.40
2018-11-02T02:39:23.739Z,6.80
2018-11-02T02:40:23.721Z,6.70
2018-11-02T02:41:23.706Z,6.50
2018-11-02T02:42:23.687Z,6.40
2018-11-02T02:43:23.670Z,6.30
2018-11-02T02:44:23.649Z,7.40
2018-11-02T02:45:23.631Z,6.20
2018-11-02T02:46:23.643Z,6.90
2018-11-02T02:47:23.594Z,6.80
2018-11-02T02:48:23.579Z,6.20
2018-11-02T02:49:23.557Z,6.30
2018-11-02T02:50:23.539Z,6.60
2018-11-02T02:51:23.526Z,6.30
2018-11-02T02:52:23.506Z,6.10
2018-11-02T02:53:23.498Z,6.70
2018-11-02T02:54:23.468Z,6.50
2018-11-02T02:55:23.446Z,6.60
2018-11-02T02:56:23.430Z,6.40
2018-11-02T02:57:23.414Z,6.20
2018-11-02T02:58:23.394Z,6.60
2018-11-02T02:59:23.377Z,7.00
2018-11-02T03:00:23.358Z,6.50
2018-11-02T03:01:23.342Z,5.90
2018-11-02T03:02:23.330Z,6.40
2018-11-02T03:03:23.302Z,7.20
2018-11-02T03:04:23.282Z,6.80
2018-11-02T03:05:23.265Z,6.80
2018-11-02T03:06:23.260Z,6.80
2018-11-02T03:07:23.230Z,6.10
2018-11-02T03:08:23.209Z,6.10
2018-11-02T03:09:23.200Z,6.90
2018-11-02T03:10:23.272Z,6.50
2018-11-02T03:11:23.154Z,7.10
2018-11-02T03:12:23.143Z,6.60
2018-11-02T03:13:23.119Z,7.20
2018-11-02T03:14:23.106Z,6.50
2018-11-02T03:15:23.081Z,7.10
2018-11-02T03:16:23.063Z,7.00
2018-11-02T03:17:23.045Z,6.80
2018-11-02T03:18:23.068Z,6.50
2018-11-02T03:19:23.007Z,6.60
2018-11-02T03:20:22.997Z,6.70
2018-11-02T03:21:22.973Z,6.60
2018-11-02T03:22:22.962Z,6.40
2018-11-02T03:23:22.938Z,6.30
2018-11-02T03:24:22.918Z,6.70
2018-11-02T03:25:22.901Z,6.70
2018-11-02T03:26:22.882Z,6.70
2018-11-02T03:27:22.865Z,6.50
2018-11-02T03:28:22.845Z,6.50
2018-11-02T03:29:22.849Z,6.90
2018-11-02T03:30:22.842Z,6.10
2018-11-02T03:31:22.793Z,6.20
2018-11-02T03:32:22.776Z,7.30
2018-11-02T03:33:22.757Z,7.50
2018-11-02T03:34:22.736Z,7.10
2018-11-02T03:35:22.718Z,7.10
2018-11-02T03:36:22.699Z,7.10
2018-11-02T03:37:22.680Z,7.40
2018-11-02T03:38:22.666Z,6.70
2018-11-02T03:39:22.645Z,7.50
2018-11-02T03:40:22.640Z,8.10
2018-11-02T03:41:22.625Z,7.80
2018-11-02T03:42:22.590Z,8.40
2018-11-02T03:43:22.576Z,8.10
2018-11-02T03:44:22.557Z,8.10
2018-11-02T03:45:22.533Z,8.00
2018-11-02T03:46:22.516Z,8.40
2018-11-02T03:47:22.498Z,8.40
2018-11-02T03:48:22.480Z,8.90
2018-11-02T03:49:22.466Z,8.30
2018-11-02T03:50:22.445Z,8.50
2018-11-02T03:51:22.424Z,8.10
2018-11-02T03:52:22.407Z,8.50
2018-11-02T03:53:22.395Z,8.80
2018-11-02T03:54:22.375Z,9.10
2018-11-02T03:55:22.357Z,9.00
2018-11-02T03:56:22.334Z,9.50
2018-11-02T03:57:22.318Z,8.80
2018-11-02T03:58:22.300Z,9.30
2018-11-02T03:59:22.278Z,9.40
2018-11-02T04:00:22.259Z,9.40
2018-11-02T04:01:22.245Z,9.20
2018-11-02T04:02:22.224Z,9.20
2018-11-02T04:03:22.216Z,10.10
2018-11-02T04:04:22.193Z,9.40
2018-11-02T04:05:22.170Z,9.60
2018-11-02T04:06:22.151Z,10.00
2018-11-02T04:07:22.136Z,9.70
2018-11-02T04:08:22.116Z,9.60
2018-11-02T04:09:22.099Z,9.90
2018-11-02T04:10:22.083Z,9.30
2018-11-02T04:11:22.060Z,8.20
2018-11-02T04:12:22.094Z,8.40
2018-11-02T04:13:22.027Z,9.00
2018-11-02T04:14:22.007Z,9.60
2018-11-02T04:15:21.988Z,8.80
2018-11-02T04:16:21.968Z,9.40
2018-11-02T04:17:22.032Z,9.40
2018-11-02T04:18:21.932Z,8.60
2018-11-02T04:19:21.920Z,9.00
2018-11-02T04:20:21.895Z,9.10
2018-11-02T04:21:21.879Z,8.40
2018-11-02T04:22:21.860Z,9.20
2018-11-02T04:23:21.841Z,9.20
2018-11-02T04:24:21.825Z,9.60
2018-11-02T04:25:21.805Z,9.00
2018-11-02T04:26:21.786Z,9.30
2018-11-02T04:27:21.769Z,9.00
2018-11-02T04:28:21.749Z,8.60
2018-11-02T04:29:21.733Z,8.60
2018-11-02T04:30:21.722Z,8.80
2018-11-02T04:31:21.697Z,9.20
2018-11-02T04:32:21.678Z,9.10
2018-11-02T04:33:21.664Z,9.50
2018-11-02T04:34:21.640Z,9.00
2018-11-02T04:35:21.655Z,9.50
2018-11-02T04:36:21.606Z,8.60
2018-11-02T04:37:21.585Z,9.30
2018-11-02T04:38:21.575Z,8.70
2018-11-02T04:39:21.555Z,9.60
2018-11-02T04:40:21.531Z,9.50
2018-11-02T04:41:21.512Z,9.40
2018-11-02T04:42:21.539Z,9.20
2018-11-02T04:43:21.476Z,9.50
2018-11-02T04:44:21.464Z,9.70
2018-11-02T04:45:21.442Z,10.00
2018-11-02T04:46:21.427Z,10.10
2018-11-02T04:47:21.409Z,10.40
2018-11-02T04:48:21.386Z,9.80
2018-11-02T04:49:21.369Z,10.30
2018-11-02T04:50:21.351Z,10.20
2018-11-02T04:51:21.335Z,11.10
2018-11-02T04:52:21.313Z,10.90
2018-11-02T04:53:21.298Z,10.40
2018-11-02T04:54:21.284Z,11.00
2018-11-02T04:55:21.259Z,11.70
2018-11-02T04:56:21.244Z,12.00
2018-11-02T04:57:21.230Z,12.20
2018-11-02T04:58:21.207Z,11.50
2018-11-02T04:59:21.187Z,12.30
2018-11-02T05:00:21.169Z,11.90
2018-11-02T05:01:21.152Z,11.90
2018-11-02T05:02:21.136Z,12.20
2018-11-02T05:03:21.122Z,12.30
2018-11-02T05:04:21.099Z,12.00
2018-11-02T05:05:21.081Z,11.80
2018-11-02T05:06:21.064Z,11.80
2018-11-02T05:07:21.072Z,12.00
2018-11-02T05:08:21.025Z,12.10
2018-11-02T05:09:21.010Z,12.40
2018-11-02T05:10:20.992Z,13.30
2018-11-02T05:11:20.983Z,13.40
2018-11-02T05:12:20.951Z,12.90
2018-11-02T05:13:20.938Z,13.10
2018-11-02T05:14:20.916Z,13.90
2018-11-02T05:15:20.897Z,14.60
2018-11-02T05:16:20.878Z,14.20
2018-11-02T05:17:20.868Z,14.80
2018-11-02T05:18:20.842Z,15.20
2018-11-02T05:19:20.827Z,15.80
2018-11-02T05:20:20.807Z,15.60
2018-11-02T05:21:20.852Z,15.90
2018-11-02T05:22:20.771Z,15.50
2018-11-02T05:23:20.753Z,16.80
2018-11-02T05:24:20.732Z,16.10
2018-11-02T05:25:20.715Z,16.70
2018-11-02T05:26:20.699Z,17.10
2018-11-02T05:27:20.682Z,16.50
2018-11-02T05:28:20.662Z,18.00
2018-11-02T05:29:20.646Z,17.40
2018-11-02T05:30:20.631Z,17.80
2018-11-02T05:31:20.608Z,17.50
2018-11-02T05:32:20.594Z,17.90
2018-11-02T05:33:20.574Z,18.60
2018-11-02T05:34:20.554Z,19.10
2018-11-02T05:35:20.533Z,19.40
2018-11-02T05:36:20.523Z,17.90
2018-11-02T05:37:20.498Z,18.50
2018-11-02T05:38:20.479Z,19.00
2018-11-02T05:39:20.489Z,18.80
2018-11-02T05:40:20.441Z,18.80
2018-11-02T05:41:20.423Z,19.30
2018-11-02T05:42:20.409Z,20.10
2018-11-02T05:43:20.386Z,19.80
2018-11-02T05:44:20.369Z,20.70
2018-11-02T05:45:20.350Z,21.00
2018-11-02T05:46:20.335Z,20.10
2018-11-02T05:47:20.393Z,21.30
2018-11-02T05:48:20.298Z,21.00
2018-11-02T05:49:20.277Z,21.70
2018-11-02T05:50:20.263Z,22.30
2018-11-02T05:51:20.239Z,21.80
2018-11-02T05:52:20.223Z,21.30
2018-11-02T05:53:20.206Z,20.70
2018-11-02T05:54:20.308Z,22.40
2018-11-02T05:55:20.166Z,21.10
2018-11-02T05:56:20.151Z,22.70
2018-11-02T05:57:20.136Z,22.20
2018-11-02T05:58:20.113Z,22.50
2018-11-02T05:59:20.098Z,24.20
2018-11-02T06:00:20.075Z,22.60
2018-11-02T06:01:20.076Z,23.10
2018-11-02T06:02:20.038Z,22.40
2018-11-02T06:03:20.021Z,23.30
2018-11-02T06:04:20.002Z,21.40
2018-11-02T06:05:19.984Z,23.00
2018-11-02T06:06:19.964Z,24.30
2018-11-02T06:07:19.942Z,23.30
2018-11-02T06:08:19.934Z,23.30
2018-11-02T06:09:19.909Z,24.50
2018-11-02T06:10:19.891Z,23.90
2018-11-02T06:11:19.877Z,24.60
2018-11-02T06:12:19.853Z,23.60
2018-11-02T06:13:19.891Z,26.50
2018-11-02T06:14:19.817Z,25.50
2018-11-02T06:15:19.802Z,25.30
2018-11-02T06:16:19.779Z,25.90
2018-11-02T06:17:19.762Z,25.60
2018-11-02T06:18:19.743Z,26.20
2018-11-02T06:19:19.737Z,26.40
2018-11-02T06:20:19.706Z,25.40
2018-11-02T06:21:19.690Z,22.10
2018-11-02T06:22:19.694Z,23.30
2018-11-02T06:23:19.652Z,22.90
2018-11-02T06:24:19.729Z,23.20
2018-11-02T06:25:19.615Z,24.10
2018-11-02T06:26:19.594Z,23.20
2018-11-02T06:27:19.574Z,23.40
2018-11-02T06:28:19.557Z,21.60
2018-11-02T06:29:19.538Z,22.70
2018-11-02T06:30:19.522Z,21.90
2018-11-02T06:31:19.500Z,22.20
2018-11-02T06:32:19.485Z,20.70
2018-11-02T06:33:19.463Z,23.00
2018-11-02T06:34:19.452Z,22.60
2018-11-02T06:35:19.428Z,21.70
2018-11-02T06:36:19.409Z,22.30
2018-11-02T06:37:19.386Z,22.40
2018-11-02T06:38:19.370Z,22.80
2018-11-02T06:39:19.350Z,24.20
2018-11-02T06:40:19.342Z,21.60
2018-11-02T06:41:19.316Z,24.20
2018-11-02T06:42:19.297Z,22.20
2018-11-02T06:43:19.277Z,22.60
2018-11-02T06:44:19.267Z,23.90
2018-11-02T06:45:19.284Z,22.60
2018-11-02T06:46:19.230Z,22.70
2018-11-02T06:47:19.202Z,23.90
2018-11-02T06:48:19.184Z,23.10
2018-11-02T06:49:19.166Z,24.00
2018-11-02T06:50:19.153Z,23.20
2018-11-02T06:51:19.129Z,23.20
2018-11-02T06:52:19.114Z,22.90
2018-11-02T06:53:19.096Z,22.70
2018-11-02T06:54:19.075Z,22.60
2018-11-02T06:55:19.054Z,22.90
2018-11-02T06:56:19.058Z,21.80
2018-11-02T06:57:19.017Z,22.40
2018-11-02T06:58:19.005Z,21.80
2018-11-02T06:59:19.071Z,20.20
2018-11-02T07:00:19.068Z,20.80
2018-11-02T07:01:18.941Z,20.60
2018-11-02T07:02:18.925Z,20.80
2018-11-02T07:03:18.907Z,19.00
2018-11-02T07:04:18.891Z,19.50
2018-11-02T07:05:18.871Z,19.90
2018-11-02T07:06:18.852Z,18.70
2018-11-02T07:07:18.899Z,19.20
2018-11-02T07:08:18.863Z,20.00
2018-11-02T07:09:18.797Z,18.90
2018-11-02T07:10:18.781Z,19.00
2018-11-02T07:11:18.764Z,18.80
2018-11-02T07:12:18.742Z,19.30
2018-11-02T07:13:18.727Z,20.30
2018-11-02T07:14:18.706Z,20.10
2018-11-02T07:15:18.719Z,21.80
2018-11-02T07:16:18.666Z,21.90
2018-11-02T07:17:18.657Z,22.60
2018-11-02T07:18:18.635Z,23.30
2018-11-02T07:19:18.622Z,24.20
2018-11-02T07:20:18.597Z,24.30
2018-11-02T07:21:18.576Z,23.90
2018-11-02T07:22:18.567Z,24.40
2018-11-02T07:23:18.539Z,24.40
2018-11-02T07:24:18.551Z,23.90
2018-11-02T07:25:18.627Z,24.70
2018-11-02T07:26:18.489Z,24.00
2018-11-02T07:27:18.465Z,23.80
2018-11-02T07:28:18.445Z,24.70
2018-11-02T07:29:18.428Z,25.00
2018-11-02T07:30:18.411Z,25.20
2018-11-02T07:31:18.392Z,27.30
2018-11-02T07:32:18.376Z,27.50
2018-11-02T07:33:18.358Z,27.80
2018-11-02T07:34:18.336Z,26.90
2018-11-02T07:35:18.355Z,27.40
2018-11-02T07:36:18.300Z,27.10
2018-11-02T07:37:18.283Z,29.50
2018-11-02T07:38:18.263Z,28.40
2018-11-02T07:39:18.253Z,28.00
2018-11-02T07:40:18.227Z,28.00
2018-11-02T07:41:18.215Z,28.40
2018-11-02T07:42:18.190Z,27.20
2018-11-02T07:43:18.178Z,26.60
2018-11-02T07:44:18.153Z,26.90
2018-11-02T07:45:18.134Z,27.40
2018-11-02T07:46:18.126Z,28.20
2018-11-02T07:47:18.105Z,25.00
2018-11-02T07:48:18.079Z,27.20
2018-11-02T07:49:18.124Z,27.50
2018-11-02T07:50:18.044Z,27.10
2018-11-02T07:51:18.036Z,27.30
2018-11-02T07:52:18.005Z,26.50
2018-11-02T07:53:17.987Z,27.70
2018-11-02T07:54:17.968Z,27.10
2018-11-02T07:55:17.952Z,27.10
2018-11-02T07:56:17.932Z,27.10
2018-11-02T07:57:17.914Z,24.20
2018-11-02T07:58:17.902Z,25.10
2018-11-02T07:59:17.879Z,24.70
2018-11-02T08:00:17.860Z,26.20
2018-11-02T08:01:17.844Z,25.90
2018-11-02T08:02:17.823Z,25.40
2018-11-02T08:03:17.804Z,26.10
2018-11-02T08:04:17.789Z,26.00
2018-11-02T08:05:17.769Z,26.40
2018-11-02T08:06:17.750Z,26.80
2018-11-02T08:07:17.731Z,26.40
2018-11-02T08:08:17.714Z,27.20
2018-11-02T08:09:17.695Z,26.40
2018-11-02T08:10:17.681Z,26.30
2018-11-02T08:11:17.725Z,25.80
2018-11-02T08:12:17.645Z,26.00
2018-11-02T08:13:17.632Z,25.70
2018-11-02T08:14:17.609Z,25.30
2018-11-02T08:15:17.592Z,24.60
2018-11-02T08:16:17.571Z,23.40
2018-11-02T08:17:17.557Z,25.60
2018-11-02T08:18:17.535Z,25.50
2018-11-02T08:19:17.520Z,24.90
2018-11-02T08:20:17.509Z,26.40
2018-11-02T08:21:17.483Z,25.10
2018-11-02T08:22:17.464Z,24.60
2018-11-02T08:23:17.447Z,24.10
2018-11-02T08:24:17.480Z,24.40
2018-11-02T08:25:17.415Z,23.80
2018-11-02T08:26:17.398Z,23.00
2018-11-02T08:27:17.375Z,20.50
2018-11-02T08:28:17.357Z,23.10
2018-11-02T08:29:17.343Z,22.30
2018-11-02T08:30:17.325Z,21.70
2018-11-02T08:31:17.305Z,23.30
2018-11-02T08:32:17.424Z,22.30
2018-11-02T08:33:17.267Z,22.90
2018-11-02T08:34:17.250Z,21.20
2018-11-02T08:35:17.236Z,22.40
2018-11-02T08:36:17.217Z,21.50
2018-11-02T08:37:17.211Z,21.20
2018-11-02T08:38:17.183Z,21.50
2018-11-02T08:39:17.159Z,19.80
2018-11-02T08:40:17.148Z,20.70
2018-11-02T08:41:17.131Z,20.80
2018-11-02T08:42:17.131Z,20.20
2018-11-02T08:43:17.091Z,20.90
2018-11-02T08:44:17.071Z,19.70
2018-11-02T08:45:17.058Z,19.70
2018-11-02T08:46:17.062Z,19.90
2018-11-02T08:47:17.022Z,19.70
2018-11-02T08:48:17.047Z,19.20
2018-11-02T08:49:16.986Z,20.00
2018-11-02T08:50:16.970Z,19.30
2018-11-02T08:51:16.951Z,19.10
2018-11-02T08:52:16.988Z,18.20
2018-11-02T08:53:16.916Z,16.60
2018-11-02T08:54:16.900Z,16.70
2018-11-02T08:55:16.879Z,17.90
2018-11-02T08:56:16.859Z,17.00
2018-11-02T08:57:16.843Z,16.40
2018-11-02T08:58:16.934Z,16.30
2018-11-02T08:59:16.843Z,16.00
2018-11-02T09:00:16.891Z,16.10
2018-11-02T09:01:16.782Z,15.30
2018-11-02T09:02:16.753Z,14.40
2018-11-02T09:03:16.738Z,15.70
2018-11-02T09:04:16.720Z,15.10
2018-11-02T09:05:16.700Z,15.50
2018-11-02T09:06:16.691Z,15.90
2018-11-02T09:07:16.671Z,14.30
2018-11-02T09:08:16.646Z,12.90
2018-11-02T09:09:16.636Z,13.40
2018-11-02T09:10:16.623Z,12.70
2018-11-02T09:11:16.594Z,13.00
2018-11-02T09:12:16.780Z,12.40
2018-11-02T09:13:16.563Z,12.40
2018-11-02T09:14:16.543Z,12.80
2018-11-02T09:15:16.534Z,12.60
2018-11-02T09:16:16.507Z,12.50
2018-11-02T09:17:16.492Z,11.90
2018-11-02T09:18:16.488Z,12.10
2018-11-02T09:19:16.561Z,12.10
2018-11-02T09:20:16.448Z,12.00
2018-11-02T09:21:16.443Z,12.70
2018-11-02T09:22:16.417Z,12.30
2018-11-02T09:23:16.385Z,11.10
2018-11-02T09:24:16.392Z,11.40
2018-11-02T09:25:16.349Z,11.80
2018-11-02T09:26:16.336Z,11.30
2018-11-02T09:27:16.355Z,11.30
2018-11-02T09:28:16.300Z,11.90
2018-11-02T09:29:16.283Z,11.80
2018-11-02T09:30:16.273Z,11.60
2018-11-02T09:31:16.248Z,10.60
2018-11-02T09:32:16.231Z,10.00
2018-11-02T09:33:16.217Z,10.20
2018-11-02T09:34:16.194Z,10.60
2018-11-02T09:35:16.179Z,10.10
2018-11-02T09:36:16.157Z,10.20
2018-11-02T09:37:16.141Z,9.80
2018-11-02T09:38:16.125Z,9.10
2018-11-02T09:39:16.116Z,8.80
2018-11-02T09:40:16.197Z,9.00
2018-11-02T09:41:16.085Z,9.00
2018-11-02T09:42:16.055Z,9.20
2018-11-02T09:43:16.041Z,9.40
2018-11-02T09:44:16.022Z,8.60
2018-11-02T09:45:16.006Z,9.00
2018-11-02T09:46:15.989Z,8.90
2018-11-02T09:47:15.972Z,8.20
2018-11-02T09:48:15.956Z,8.50
2018-11-02T09:49:15.939Z,8.10
2018-11-02T09:50:15.930Z,8.20
2018-11-02T09:51:15.921Z,8.30
2018-11-02T09:52:15.894Z,8.50
2018-11-02T09:53:15.886Z,8.30
2018-11-02T09:54:15.860Z,8.70
2018-11-02T09:55:15.846Z,8.60
2018-11-02T09:56:15.829Z,8.60
2018-11-02T09:57:15.813Z,8.40
2018-11-02T09:58:15.802Z,8.40
2018-11-02T09:59:15.785Z,7.80
2018-11-02T10:00:15.762Z,8.10
2018-11-02T10:01:15.749Z,8.40
2018-11-02T10:02:15.943Z,8.00
2018-11-02T10:03:15.711Z,7.90
2018-11-02T10:04:15.696Z,8.30
2018-11-02T10:05:15.681Z,8.40
2018-11-02T10:06:15.662Z,8.80
2018-11-02T10:07:15.653Z,8.70
2018-11-02T10:08:15.638Z,8.90
2018-11-02T10:09:15.707Z,8.40
2018-11-02T10:10:15.597Z,8.40
2018-11-02T10:11:15.578Z,9.00
2018-11-02T10:12:15.593Z,8.20
2018-11-02T10:13:15.571Z,8.80
2018-11-02T10:14:15.535Z,8.80
2018-11-02T10:15:15.511Z,8.70
2018-11-02T10:16:15.492Z,9.20
2018-11-02T10:17:15.492Z,8.70
2018-11-02T10:18:15.469Z,8.40
2018-11-02T10:19:15.438Z,8.40
2018-11-02T10:20:15.423Z,8.50
2018-11-02T10:21:15.409Z,9.00
2018-11-02T10:22:15.393Z,8.90
2018-11-02T10:23:15.373Z,9.30
2018-11-02T10:24:15.352Z,8.50
2018-11-02T10:25:15.337Z,9.00
2018-11-02T10:26:15.328Z,7.80
2018-11-02T10:27:15.307Z,7.50
2018-11-02T10:28:15.419Z,7.70
2018-11-02T10:29:15.273Z,8.10
2018-11-02T10:30:15.259Z,8.20
2018-11-02T10:31:15.235Z,7.70
2018-11-02T10:32:15.214Z,7.40
2018-11-02T10:33:15.203Z,7.80
2018-11-02T10:34:15.184Z,8.50
2018-11-02T10:35:15.191Z,8.30
2018-11-02T10:36:15.153Z,7.80
2018-11-02T10:37:15.128Z,6.90
2018-11-02T10:38:15.113Z,7.50
2018-11-02T10:39:15.096Z,7.10
2018-11-02T10:40:15.078Z,7.50
2018-11-02T10:41:15.072Z,7.50
2018-11-02T10:42:15.052Z,8.30
2018-11-02T10:43:15.026Z,7.80
2018-11-02T10:44:15.048Z,7.60
2018-11-02T10:45:14.996Z,8.30
2018-11-02T10:46:14.987Z,8.20
2018-11-02T10:47:14.953Z,8.10
2018-11-02T10:48:14.936Z,7.70
2018-11-02T10:49:14.988Z,7.60
2018-11-02T10:50:14.904Z,9.70
2018-11-02T10:51:14.940Z,9.00
2018-11-02T10:52:14.863Z,10.20
2018-11-02T10:53:14.849Z,9.30
2018-11-02T10:54:14.830Z,8.20
2018-11-02T10:55:14.818Z,8.40
2018-11-02T10:56:14.796Z,7.40
2018-11-02T10:57:14.776Z,6.20
2018-11-02T10:58:14.760Z,6.30
2018-11-02T10:59:14.750Z,5.30
2018-11-02T11:00:14.727Z,5.20
2018-11-02T11:01:14.763Z,5.30
2018-11-02T11:02:14.692Z,4.80
2018-11-02T11:03:14.676Z,4.40
2018-11-02T11:04:14.667Z,4.60
2018-11-02T11:05:14.648Z,4.30
2018-11-02T11:06:14.622Z,4.00
2018-11-02T11:07:14.607Z,3.90
2018-11-02T11:08:14.590Z,3.60
2018-11-02T11:09:14.574Z,3.80
2018-11-02T11:10:14.552Z,3.80
2018-11-02T11:11:14.535Z,3.50
2018-11-02T11:12:14.610Z,2.90
2018-11-02T11:13:14.762Z,3.60
2018-11-02T11:14:14.487Z,3.30
2018-11-02T11:15:14.465Z,3.70
2018-11-02T11:16:14.447Z,4.00
2018-11-02T11:17:14.432Z,3.90
2018-11-02T11:18:14.418Z,4.10
2018-11-02T11:19:14.404Z,4.20
2018-11-02T11:20:14.380Z,4.20
2018-11-02T11:21:14.401Z,4.40
2018-11-02T11:22:14.345Z,4.00
2018-11-02T11:23:14.326Z,3.80
2018-11-02T11:24:14.315Z,3.50
2018-11-02T11:25:14.289Z,3.80
2018-11-02T11:26:14.276Z,4.30
2018-11-02T11:27:14.256Z,4.00
2018-11-02T11:28:14.243Z,3.90
2018-11-02T11:29:14.268Z,4.10
2018-11-02T11:30:14.210Z,4.20
2018-11-02T11:31:14.192Z,4.70
2018-11-02T11:32:14.178Z,5.00
2018-11-02T11:33:14.152Z,5.20
2018-11-02T11:34:14.137Z,5.60
2018-11-02T11:35:14.118Z,5.90
2018-11-02T11:36:14.103Z,5.80
2018-11-02T11:37:14.085Z,6.20
2018-11-02T11:38:14.073Z,6.60
2018-11-02T11:39:14.048Z,6.10
2018-11-02T11:40:14.042Z,6.80
2018-11-02T11:41:14.019Z,7.00
2018-11-02T11:42:13.997Z,7.30
2018-11-02T11:43:13.988Z,6.70
2018-11-02T11:44:13.969Z,7.10
2018-11-02T11:45:13.954Z,7.10
2018-11-02T11:46:13.937Z,7.20
2018-11-02T11:47:13.910Z,7.00
2018-11-02T11:48:13.896Z,6.50
2018-11-02T11:49:13.996Z,6.40
2018-11-02T11:50:13.861Z,7.00
2018-11-02T11:51:13.844Z,7.00
2018-11-02T11:52:13.830Z,7.10
2018-11-02T11:53:13.811Z,6.80
2018-11-02T11:54:13.794Z,7.00
2018-11-02T11:55:13.767Z,7.40
2018-11-02T11:56:13.762Z,6.40
2018-11-02T11:57:13.741Z,6.80
2018-11-02T11:58:13.718Z,6.90
2018-11-02T11:59:13.711Z,6.70
2018-11-02T12:00:13.685Z,6.70
2018-11-02T12:01:13.667Z,6.20
2018-11-02T12:02:13.728Z,6.90
2018-11-02T12:03:13.642Z,7.20
2018-11-02T12:04:13.677Z,7.60
2018-11-02T12:05:13.602Z,7.20
2018-11-02T12:06:13.580Z,7.10
2018-11-02T12:07:13.562Z,7.40
2018-11-02T12:08:13.546Z,7.80
2018-11-02T12:09:13.605Z,7.50
2018-11-02T12:10:13.521Z,7.70
2018-11-02T12:11:13.496Z,6.80
2018-11-02T12:12:13.487Z,7.30
2018-11-02T12:13:13.463Z,7.00
2018-11-02T12:14:13.453Z,7.10
2018-11-02T12:15:13.434Z,7.60
2018-11-02T12:16:13.411Z,6.90
2018-11-02T12:17:13.404Z,7.10
2018-11-02T12:18:13.384Z,7.20
2018-11-02T12:19:13.359Z,6.70
2018-11-02T12:20:13.342Z,7.20
2018-11-02T12:21:13.328Z,7.60
2018-11-02T12:22:13.316Z,7.90
2018-11-02T12:23:13.290Z,7.30
2018-11-02T12:24:13.279Z,7.50
2018-11-02T12:25:13.258Z,6.50
2018-11-02T12:26:13.247Z,6.30
2018-11-02T12:27:13.225Z,6.80
2018-11-02T12:28:13.266Z,6.20
2018-11-02T12:29:13.243Z,6.30
2018-11-02T12:30:13.178Z,6.00
2018-11-02T12:31:13.159Z,5.90
2018-11-02T12:32:13.141Z,4.90
2018-11-02T12:33:13.124Z,4.40
2018-11-02T12:34:13.108Z,3.90
2018-11-02T12:35:13.091Z,4.30
2018-11-02T12:36:13.075Z,4.40
2018-11-02T12:37:13.149Z,4.30
2018-11-02T12:38:13.045Z,3.80
2018-11-02T12:39:13.030Z,3.30
2018-11-02T12:40:13.016Z,3.50
2018-11-02T12:41:13.005Z,3.80
2018-11-02T12:42:12.984Z,3.70
2018-11-02T12:43:13.046Z,3.30
2018-11-02T12:44:12.959Z,3.90
2018-11-02T12:45:12.945Z,3.50
2018-11-02T12:46:12.926Z,3.40
2018-11-02T12:47:12.910Z,3.40
2018-11-02T12:48:12.956Z,3.30
2018-11-02T12:49:13.209Z,3.60
2018-11-02T12:50:12.901Z,3.20
2018-11-02T12:51:12.861Z,3.00
2018-11-02T12:52:12.842Z,2.80
2018-11-02T12:53:12.830Z,2.70
2018-11-02T12:54:12.817Z,2.70
2018-11-02T12:55:12.807Z,2.60
2018-11-02T12:56:12.792Z,3.20
2018-11-02T12:57:12.777Z,2.90
2018-11-02T12:58:12.764Z,2.80
2018-11-02T12:59:12.748Z,2.90
2018-11-02T13:00:12.738Z,2.60
2018-11-02T13:01:12.726Z,2.40
2018-11-02T13:02:12.713Z,2.50
2018-11-02T13:03:12.702Z,2.50
2018-11-02T13:04:12.686Z,2.60